sensor_id;sensor_type;location;lat;lon;timestamp;temperature;humidity
61386;DHT22;47256;18.904;-99.054;2023-03-01T00:02:19;31.30;41.70
61386;DHT22;47256;18.904;-99.054;2023-03-01T00:04:46;31.30;44.10
61386;DHT22;47256;18.904;-99.054;2023-03-01T00:07:21;31.20;41.60
61386;DHT22;47256;18.904;-99.054;2023-03-01T00:09:49;31.20;41.60
61386;DHT22;47256;18.904;-99.054;2023-03-01T00:12:16;31.10;43.80
61386;DHT22;47256;18.904;-99.054;2023-03-01T00:14:44;31.00;42.70
61386;DHT22;47256;18.904;-99.054;2023-03-01T00:17:11;31.00;41.90
61386;DHT22;47256;18.904;-99.054;2023-03-01T00:19:38;30.90;43.40
61386;DHT22;47256;18.904;-99.054;2023-03-01T00:22:06;30.80;44.60
61386;DHT22;47256;18.904;-99.054;2023-03-01T00:24:36;30.80;44.10
61386;DHT22;47256;18.904;-99.054;2023-03-01T00:27:03;30.70;42.50
61386;DHT22;47256;18.904;-99.054;2023-03-01T00:29:30;30.70;42.50
61386;DHT22;47256;18.904;-99.054;2023-03-01T00:31:57;30.70;43.50
61386;DHT22;47256;18.904;-99.054;2023-03-01T00:34:26;30.50;44.40
61386;DHT22;47256;18.904;-99.054;2023-03-01T00:36:54;30.50;43.70
61386;DHT22;47256;18.904;-99.054;2023-03-01T00:39:23;30.50;43.50
61386;DHT22;47256;18.904;-99.054;2023-03-01T00:41:51;30.40;43.40
61386;DHT22;47256;18.904;-99.054;2023-03-01T00:44:44;30.30;46.90
61386;DHT22;47256;18.904;-99.054;2023-03-01T00:47:12;30.20;47.50
61386;DHT22;47256;18.904;-99.054;2023-03-01T00:49:40;30.10;45.40
61386;DHT22;47256;18.904;-99.054;2023-03-01T00:52:08;30.00;45.70
61386;DHT22;47256;18.904;-99.054;2023-03-01T00:54:35;30.00;45.80
61386;DHT22;47256;18.904;-99.054;2023-03-01T00:57:02;29.90;47.70
61386;DHT22;47256;18.904;-99.054;2023-03-01T00:59:30;29.80;47.60
61386;DHT22;47256;18.904;-99.054;2023-03-01T01:01:57;29.70;48.00
61386;DHT22;47256;18.904;-99.054;2023-03-01T01:04:25;29.60;47.20
61386;DHT22;47256;18.904;-99.054;2023-03-01T01:06:53;29.60;46.30
61386;DHT22;47256;18.904;-99.054;2023-03-01T01:09:20;29.50;46.40
61386;DHT22;47256;18.904;-99.054;2023-03-01T01:11:49;29.50;46.30
61386;DHT22;47256;18.904;-99.054;2023-03-01T01:14:18;29.50;46.10
61386;DHT22;47256;18.904;-99.054;2023-03-01T01:16:46;29.40;45.50
61386;DHT22;47256;18.904;-99.054;2023-03-01T01:19:14;29.40;46.50
61386;DHT22;47256;18.904;-99.054;2023-03-01T01:21:41;29.30;46.40
61386;DHT22;47256;18.904;-99.054;2023-03-01T01:24:12;29.30;45.50
61386;DHT22;47256;18.904;-99.054;2023-03-01T01:26:39;29.30;45.70
61386;DHT22;47256;18.904;-99.054;2023-03-01T01:29:07;29.30;45.70
61386;DHT22;47256;18.904;-99.054;2023-03-01T01:31:36;29.20;46.30
61386;DHT22;47256;18.904;-99.054;2023-03-01T01:34:05;29.20;45.70
61386;DHT22;47256;18.904;-99.054;2023-03-01T01:36:34;29.10;46.40
61386;DHT22;47256;18.904;-99.054;2023-03-01T01:39:02;29.10;46.20
61386;DHT22;47256;18.904;-99.054;2023-03-01T01:41:29;29.00;45.80
61386;DHT22;47256;18.904;-99.054;2023-03-01T01:44:17;28.90;46.30
61386;DHT22;47256;18.904;-99.054;2023-03-01T01:46:53;28.80;47.30
61386;DHT22;47256;18.904;-99.054;2023-03-01T01:51:51;28.70;51.10
61386;DHT22;47256;18.904;-99.054;2023-03-01T01:54:44;28.50;49.10
61386;DHT22;47256;18.904;-99.054;2023-03-01T01:57:18;28.40;51.20
61386;DHT22;47256;18.904;-99.054;2023-03-01T01:59:54;28.30;50.10
61386;DHT22;47256;18.904;-99.054;2023-03-01T02:02:23;28.20;48.90
61386;DHT22;47256;18.904;-99.054;2023-03-01T02:04:55;28.20;49.00
61386;DHT22;47256;18.904;-99.054;2023-03-01T02:07:26;28.20;49.10
61386;DHT22;47256;18.904;-99.054;2023-03-01T02:09:54;28.20;50.90
61386;DHT22;47256;18.904;-99.054;2023-03-01T02:12:24;28.10;50.50
61386;DHT22;47256;18.904;-99.054;2023-03-01T02:14:52;28.00;51.60
61386;DHT22;47256;18.904;-99.054;2023-03-01T02:17:21;27.90;50.70
61386;DHT22;47256;18.904;-99.054;2023-03-01T02:20:32;27.80;52.30
61386;DHT22;47256;18.904;-99.054;2023-03-01T02:22:55;27.60;50.60
61386;DHT22;47256;18.904;-99.054;2023-03-01T02:25:34;27.30;50.20
61386;DHT22;47256;18.904;-99.054;2023-03-01T02:30:47;27.30;50.20
61386;DHT22;47256;18.904;-99.054;2023-03-01T02:33:36;27.30;50.70
61386;DHT22;47256;18.904;-99.054;2023-03-01T02:36:09;27.40;51.70
61386;DHT22;47256;18.904;-99.054;2023-03-01T02:38:41;27.40;50.40
61386;DHT22;47256;18.904;-99.054;2023-03-01T02:41:11;27.50;49.70
61386;DHT22;47256;18.904;-99.054;2023-03-01T02:43:40;27.50;49.40
61386;DHT22;47256;18.904;-99.054;2023-03-01T02:46:15;27.50;49.10
61386;DHT22;47256;18.904;-99.054;2023-03-01T02:48:48;27.50;47.40
61386;DHT22;47256;18.904;-99.054;2023-03-01T02:54:40;27.50;47.50
61386;DHT22;47256;18.904;-99.054;2023-03-01T02:57:09;27.50;47.10
61386;DHT22;47256;18.904;-99.054;2023-03-01T02:59:37;27.60;46.10
61386;DHT22;47256;18.904;-99.054;2023-03-01T03:02:22;27.60;50.30
61386;DHT22;47256;18.904;-99.054;2023-03-01T03:05:19;27.50;48.30
61386;DHT22;47256;18.904;-99.054;2023-03-01T03:07:50;27.40;51.60
61386;DHT22;47256;18.904;-99.054;2023-03-01T03:10:25;27.30;49.60
61386;DHT22;47256;18.904;-99.054;2023-03-01T03:12:56;27.30;49.40
61386;DHT22;47256;18.904;-99.054;2023-03-01T03:15:25;27.20;49.60
61386;DHT22;47256;18.904;-99.054;2023-03-01T03:17:56;27.20;50.90
61386;DHT22;47256;18.904;-99.054;2023-03-01T03:20:26;27.10;52.60
61386;DHT22;47256;18.904;-99.054;2023-03-01T03:22:56;26.90;53.70
61386;DHT22;47256;18.904;-99.054;2023-03-01T03:25:27;26.80;52.10
61386;DHT22;47256;18.904;-99.054;2023-03-01T03:27:55;26.90;52.10
61386;DHT22;47256;18.904;-99.054;2023-03-01T03:30:29;26.80;53.30
61386;DHT22;47256;18.904;-99.054;2023-03-01T03:32:59;26.80;52.60
61386;DHT22;47256;18.904;-99.054;2023-03-01T03:35:31;26.60;53.70
61386;DHT22;47256;18.904;-99.054;2023-03-01T03:38:01;26.60;52.30
61386;DHT22;47256;18.904;-99.054;2023-03-01T03:42:58;26.60;54.90
61386;DHT22;47256;18.904;-99.054;2023-03-01T03:45:25;26.40;53.40
61386;DHT22;47256;18.904;-99.054;2023-03-01T03:47:53;26.40;53.90
61386;DHT22;47256;18.904;-99.054;2023-03-01T03:50:22;26.30;53.30
61386;DHT22;47256;18.904;-99.054;2023-03-01T03:52:49;26.30;54.30
61386;DHT22;47256;18.904;-99.054;2023-03-01T03:55:17;26.20;55.20
61386;DHT22;47256;18.904;-99.054;2023-03-01T03:57:47;26.30;54.40
61386;DHT22;47256;18.904;-99.054;2023-03-01T04:00:22;26.30;54.40
61386;DHT22;47256;18.904;-99.054;2023-03-01T04:02:50;26.20;54.80
61386;DHT22;47256;18.904;-99.054;2023-03-01T04:05:19;26.20;55.80
61386;DHT22;47256;18.904;-99.054;2023-03-01T04:07:46;26.20;55.20
61386;DHT22;47256;18.904;-99.054;2023-03-01T04:10:18;26.20;55.70
61386;DHT22;47256;18.904;-99.054;2023-03-01T04:12:45;26.20;55.70
61386;DHT22;47256;18.904;-99.054;2023-03-01T04:15:12;26.20;56.00
61386;DHT22;47256;18.904;-99.054;2023-03-01T04:17:45;26.10;55.90
61386;DHT22;47256;18.904;-99.054;2023-03-01T04:20:15;26.10;55.90
61386;DHT22;47256;18.904;-99.054;2023-03-01T04:23:15;25.90;55.60
61386;DHT22;47256;18.904;-99.054;2023-03-01T04:25:51;25.90;56.40
61386;DHT22;47256;18.904;-99.054;2023-03-01T04:28:26;25.80;56.20
61386;DHT22;47256;18.904;-99.054;2023-03-01T04:30:55;25.70;56.00
61386;DHT22;47256;18.904;-99.054;2023-03-01T04:33:25;25.70;56.10
61386;DHT22;47256;18.904;-99.054;2023-03-01T04:35:52;25.60;55.90
61386;DHT22;47256;18.904;-99.054;2023-03-01T04:38:20;25.60;56.70
61386;DHT22;47256;18.904;-99.054;2023-03-01T04:40:48;25.50;57.10
61386;DHT22;47256;18.904;-99.054;2023-03-01T04:43:15;25.50;55.40
61386;DHT22;47256;18.904;-99.054;2023-03-01T04:45:44;25.40;56.40
61386;DHT22;47256;18.904;-99.054;2023-03-01T04:48:11;25.50;56.70
61386;DHT22;47256;18.904;-99.054;2023-03-01T04:50:39;25.50;56.40
61386;DHT22;47256;18.904;-99.054;2023-03-01T04:53:06;25.50;56.50
61386;DHT22;47256;18.904;-99.054;2023-03-01T04:55:33;25.50;57.30
61386;DHT22;47256;18.904;-99.054;2023-03-01T04:58:01;25.50;57.00
61386;DHT22;47256;18.904;-99.054;2023-03-01T05:00:28;25.40;56.20
61386;DHT22;47256;18.904;-99.054;2023-03-01T05:02:57;25.40;56.60
61386;DHT22;47256;18.904;-99.054;2023-03-01T05:05:35;25.30;58.80
61386;DHT22;47256;18.904;-99.054;2023-03-01T05:08:07;25.20;57.70
61386;DHT22;47256;18.904;-99.054;2023-03-01T05:10:36;25.00;57.80
61386;DHT22;47256;18.904;-99.054;2023-03-01T05:13:04;24.90;57.30
61386;DHT22;47256;18.904;-99.054;2023-03-01T05:15:32;25.00;56.60
61386;DHT22;47256;18.904;-99.054;2023-03-01T05:18:00;25.00;56.00
61386;DHT22;47256;18.904;-99.054;2023-03-01T05:20:29;25.00;56.10
61386;DHT22;47256;18.904;-99.054;2023-03-01T05:22:58;25.00;56.40
61386;DHT22;47256;18.904;-99.054;2023-03-01T05:25:27;25.00;56.60
61386;DHT22;47256;18.904;-99.054;2023-03-01T05:28:01;25.00;56.60
61386;DHT22;47256;18.904;-99.054;2023-03-01T05:30:32;25.00;55.40
61386;DHT22;47256;18.904;-99.054;2023-03-01T05:33:00;25.00;55.50
61386;DHT22;47256;18.904;-99.054;2023-03-01T05:35:28;24.70;56.50
61386;DHT22;47256;18.904;-99.054;2023-03-01T05:37:56;24.70;56.10
61386;DHT22;47256;18.904;-99.054;2023-03-01T05:40:24;24.60;55.40
61386;DHT22;47256;18.904;-99.054;2023-03-01T05:42:56;24.60;55.60
61386;DHT22;47256;18.904;-99.054;2023-03-01T05:45:25;24.50;55.40
61386;DHT22;47256;18.904;-99.054;2023-03-01T05:47:53;24.50;55.00
61386;DHT22;47256;18.904;-99.054;2023-03-01T05:50:26;24.50;54.50
61386;DHT22;47256;18.904;-99.054;2023-03-01T05:53:03;24.60;54.90
61386;DHT22;47256;18.904;-99.054;2023-03-01T05:55:32;24.60;55.70
61386;DHT22;47256;18.904;-99.054;2023-03-01T05:58:05;24.60;56.60
61386;DHT22;47256;18.904;-99.054;2023-03-01T06:00:33;24.60;57.00
61386;DHT22;47256;18.904;-99.054;2023-03-01T06:03:01;24.60;56.10
61386;DHT22;47256;18.904;-99.054;2023-03-01T06:05:29;24.50;55.80
61386;DHT22;47256;18.904;-99.054;2023-03-01T06:08:00;24.50;55.00
61386;DHT22;47256;18.904;-99.054;2023-03-01T06:10:28;24.50;54.80
61386;DHT22;47256;18.904;-99.054;2023-03-01T06:12:56;24.60;54.30
61386;DHT22;47256;18.904;-99.054;2023-03-01T06:15:25;24.50;54.50
61386;DHT22;47256;18.904;-99.054;2023-03-01T06:17:54;24.50;54.90
61386;DHT22;47256;18.904;-99.054;2023-03-01T06:20:25;24.50;55.80
61386;DHT22;47256;18.904;-99.054;2023-03-01T06:22:52;24.40;53.30
61386;DHT22;47256;18.904;-99.054;2023-03-01T06:25:22;24.40;54.70
61386;DHT22;47256;18.904;-99.054;2023-03-01T06:27:50;24.30;55.30
61386;DHT22;47256;18.904;-99.054;2023-03-01T06:30:20;24.30;55.00
61386;DHT22;47256;18.904;-99.054;2023-03-01T06:32:48;24.20;52.70
61386;DHT22;47256;18.904;-99.054;2023-03-01T06:35:17;24.20;54.00
61386;DHT22;47256;18.904;-99.054;2023-03-01T06:37:47;24.10;54.40
61386;DHT22;47256;18.904;-99.054;2023-03-01T06:40:15;24.00;54.60
61386;DHT22;47256;18.904;-99.054;2023-03-01T06:42:47;24.00;54.10
61386;DHT22;47256;18.904;-99.054;2023-03-01T06:45:16;24.00;54.00
61386;DHT22;47256;18.904;-99.054;2023-03-01T06:47:44;24.00;54.50
61386;DHT22;47256;18.904;-99.054;2023-03-01T06:50:12;23.90;54.10
61386;DHT22;47256;18.904;-99.054;2023-03-01T06:52:39;23.90;55.20
61386;DHT22;47256;18.904;-99.054;2023-03-01T06:55:07;23.80;55.70
61386;DHT22;47256;18.904;-99.054;2023-03-01T06:57:34;23.80;55.90
61386;DHT22;47256;18.904;-99.054;2023-03-01T07:00:06;23.80;55.40
61386;DHT22;47256;18.904;-99.054;2023-03-01T07:02:33;23.70;55.90
61386;DHT22;47256;18.904;-99.054;2023-03-01T07:05:01;23.70;56.30
61386;DHT22;47256;18.904;-99.054;2023-03-01T07:07:29;23.60;55.50
61386;DHT22;47256;18.904;-99.054;2023-03-01T07:09:56;23.70;54.60
61386;DHT22;47256;18.904;-99.054;2023-03-01T07:12:24;23.80;57.00
61386;DHT22;47256;18.904;-99.054;2023-03-01T07:14:51;23.80;55.30
61386;DHT22;47256;18.904;-99.054;2023-03-01T07:17:18;23.80;54.90
61386;DHT22;47256;18.904;-99.054;2023-03-01T07:19:46;23.90;56.20
61386;DHT22;47256;18.904;-99.054;2023-03-01T07:22:13;23.90;57.10
61386;DHT22;47256;18.904;-99.054;2023-03-01T07:24:41;23.80;55.10
61386;DHT22;47256;18.904;-99.054;2023-03-01T07:27:09;23.80;55.20
61386;DHT22;47256;18.904;-99.054;2023-03-01T07:29:37;23.90;55.30
61386;DHT22;47256;18.904;-99.054;2023-03-01T07:32:05;23.80;54.70
61386;DHT22;47256;18.904;-99.054;2023-03-01T07:34:32;23.80;56.10
61386;DHT22;47256;18.904;-99.054;2023-03-01T07:37:00;23.60;57.40
61386;DHT22;47256;18.904;-99.054;2023-03-01T07:39:27;23.50;57.00
61386;DHT22;47256;18.904;-99.054;2023-03-01T07:41:54;23.50;56.70
61386;DHT22;47256;18.904;-99.054;2023-03-01T07:44:22;23.50;56.60
61386;DHT22;47256;18.904;-99.054;2023-03-01T07:46:50;23.50;57.30
61386;DHT22;47256;18.904;-99.054;2023-03-01T07:49:19;23.50;57.50
61386;DHT22;47256;18.904;-99.054;2023-03-01T07:51:46;23.50;58.00
61386;DHT22;47256;18.904;-99.054;2023-03-01T07:54:14;23.60;58.80
61386;DHT22;47256;18.904;-99.054;2023-03-01T07:56:42;23.60;58.70
61386;DHT22;47256;18.904;-99.054;2023-03-01T07:59:09;23.60;58.90
61386;DHT22;47256;18.904;-99.054;2023-03-01T08:01:36;23.60;59.10
61386;DHT22;47256;18.904;-99.054;2023-03-01T08:04:04;23.60;59.30
61386;DHT22;47256;18.904;-99.054;2023-03-01T08:06:35;23.60;59.30
61386;DHT22;47256;18.904;-99.054;2023-03-01T08:09:02;23.60;60.10
61386;DHT22;47256;18.904;-99.054;2023-03-01T08:11:30;23.60;60.50
61386;DHT22;47256;18.904;-99.054;2023-03-01T08:13:57;23.50;60.90
61386;DHT22;47256;18.904;-99.054;2023-03-01T08:16:25;23.30;61.60
61386;DHT22;47256;18.904;-99.054;2023-03-01T08:18:52;23.30;61.80
61386;DHT22;47256;18.904;-99.054;2023-03-01T08:21:22;23.30;61.40
61386;DHT22;47256;18.904;-99.054;2023-03-01T08:23:49;23.20;62.30
61386;DHT22;47256;18.904;-99.054;2023-03-01T08:26:19;23.20;62.50
61386;DHT22;47256;18.904;-99.054;2023-03-01T08:28:47;22.90;63.60
61386;DHT22;47256;18.904;-99.054;2023-03-01T08:31:24;22.80;63.60
61386;DHT22;47256;18.904;-99.054;2023-03-01T08:33:55;22.70;63.40
61386;DHT22;47256;18.904;-99.054;2023-03-01T08:36:28;22.70;63.90
61386;DHT22;47256;18.904;-99.054;2023-03-01T08:38:56;22.70;64.80
61386;DHT22;47256;18.904;-99.054;2023-03-01T08:41:24;22.70;64.70
61386;DHT22;47256;18.904;-99.054;2023-03-01T08:43:51;22.60;62.50
61386;DHT22;47256;18.904;-99.054;2023-03-01T08:46:19;22.50;64.40
61386;DHT22;47256;18.904;-99.054;2023-03-01T08:48:46;22.60;63.40
61386;DHT22;47256;18.904;-99.054;2023-03-01T08:51:21;22.50;63.20
61386;DHT22;47256;18.904;-99.054;2023-03-01T08:53:49;22.50;63.90
61386;DHT22;47256;18.904;-99.054;2023-03-01T08:56:17;22.50;62.90
61386;DHT22;47256;18.904;-99.054;2023-03-01T08:58:47;22.60;62.50
61386;DHT22;47256;18.904;-99.054;2023-03-01T09:01:18;22.60;62.60
61386;DHT22;47256;18.904;-99.054;2023-03-01T09:03:46;22.70;63.80
61386;DHT22;47256;18.904;-99.054;2023-03-01T09:06:15;22.70;62.30
61386;DHT22;47256;18.904;-99.054;2023-03-01T09:08:45;22.80;63.20
61386;DHT22;47256;18.904;-99.054;2023-03-01T09:11:16;22.60;63.20
61386;DHT22;47256;18.904;-99.054;2023-03-01T09:13:46;22.60;64.00
61386;DHT22;47256;18.904;-99.054;2023-03-01T09:16:15;22.60;63.60
61386;DHT22;47256;18.904;-99.054;2023-03-01T09:18:48;22.60;63.70
61386;DHT22;47256;18.904;-99.054;2023-03-01T09:21:17;22.70;63.30
61386;DHT22;47256;18.904;-99.054;2023-03-01T09:23:46;22.70;63.50
61386;DHT22;47256;18.904;-99.054;2023-03-01T09:26:18;22.70;63.30
61386;DHT22;47256;18.904;-99.054;2023-03-01T09:28:53;22.70;63.90
61386;DHT22;47256;18.904;-99.054;2023-03-01T09:31:22;22.50;64.00
61386;DHT22;47256;18.904;-99.054;2023-03-01T09:33:52;22.40;65.30
61386;DHT22;47256;18.904;-99.054;2023-03-01T09:36:22;22.40;65.50
61386;DHT22;47256;18.904;-99.054;2023-03-01T09:38:51;22.50;63.90
61386;DHT22;47256;18.904;-99.054;2023-03-01T09:44:09;22.50;64.40
61386;DHT22;47256;18.904;-99.054;2023-03-01T09:46:43;22.50;64.00
61386;DHT22;47256;18.904;-99.054;2023-03-01T09:49:23;22.60;64.30
61386;DHT22;47256;18.904;-99.054;2023-03-01T09:54:56;22.50;65.20
61386;DHT22;47256;18.904;-99.054;2023-03-01T09:57:36;22.30;65.70
61386;DHT22;47256;18.904;-99.054;2023-03-01T10:00:23;22.20;65.60
61386;DHT22;47256;18.904;-99.054;2023-03-01T10:09:00;22.00;65.40
61386;DHT22;47256;18.904;-99.054;2023-03-01T10:11:32;22.00;66.00
61386;DHT22;47256;18.904;-99.054;2023-03-01T10:20:01;22.10;65.50
61386;DHT22;47256;18.904;-99.054;2023-03-01T10:22:37;22.10;66.40
61386;DHT22;47256;18.904;-99.054;2023-03-01T10:25:04;22.00;66.80
61386;DHT22;47256;18.904;-99.054;2023-03-01T10:27:45;21.90;68.10
61386;DHT22;47256;18.904;-99.054;2023-03-01T10:32:51;22.00;66.70
61386;DHT22;47256;18.904;-99.054;2023-03-01T10:35:22;22.00;66.20
61386;DHT22;47256;18.904;-99.054;2023-03-01T10:38:06;22.10;66.70
61386;DHT22;47256;18.904;-99.054;2023-03-01T10:40:36;22.10;67.10
61386;DHT22;47256;18.904;-99.054;2023-03-01T10:43:05;22.10;67.00
61386;DHT22;47256;18.904;-99.054;2023-03-01T10:45:39;22.10;67.60
61386;DHT22;47256;18.904;-99.054;2023-03-01T10:48:19;22.10;68.00
61386;DHT22;47256;18.904;-99.054;2023-03-01T10:51:04;22.10;68.30
61386;DHT22;47256;18.904;-99.054;2023-03-01T10:56:09;22.00;69.10
61386;DHT22;47256;18.904;-99.054;2023-03-01T10:58:39;22.00;70.10
61386;DHT22;47256;18.904;-99.054;2023-03-01T11:03:44;22.00;70.40
61386;DHT22;47256;18.904;-99.054;2023-03-01T11:08:45;21.80;71.10
61386;DHT22;47256;18.904;-99.054;2023-03-01T11:16:35;21.70;72.20
61386;DHT22;47256;18.904;-99.054;2023-03-01T11:21:45;21.60;73.00
61386;DHT22;47256;18.904;-99.054;2023-03-01T11:24:15;21.40;73.30
61386;DHT22;47256;18.904;-99.054;2023-03-01T11:26:47;21.20;70.80
61386;DHT22;47256;18.904;-99.054;2023-03-01T11:29:41;21.10;69.90
61386;DHT22;47256;18.904;-99.054;2023-03-01T11:32:11;21.00;71.90
61386;DHT22;47256;18.904;-99.054;2023-03-01T11:35:20;21.10;71.60
61386;DHT22;47256;18.904;-99.054;2023-03-01T11:37:56;21.10;72.10
61386;DHT22;47256;18.904;-99.054;2023-03-01T11:52:01;21.20;72.80
61386;DHT22;47256;18.904;-99.054;2023-03-01T12:11:23;21.00;73.20
61386;DHT22;47256;18.904;-99.054;2023-03-01T12:23:29;21.10;72.90
61386;DHT22;47256;18.904;-99.054;2023-03-01T12:25:36;21.00;74.00
61386;DHT22;47256;18.904;-99.054;2023-03-01T12:28:14;21.00;74.00
61386;DHT22;47256;18.904;-99.054;2023-03-01T12:48:02;20.90;74.40
61386;DHT22;47256;18.904;-99.054;2023-03-01T12:50:59;20.80;74.60
61386;DHT22;47256;18.904;-99.054;2023-03-01T12:53:29;20.80;75.50
61386;DHT22;47256;18.904;-99.054;2023-03-01T12:56:07;20.80;75.10
61386;DHT22;47256;18.904;-99.054;2023-03-01T12:58:51;20.70;75.50
61386;DHT22;47256;18.904;-99.054;2023-03-01T13:01:39;20.70;76.40
61386;DHT22;47256;18.904;-99.054;2023-03-01T13:07:23;20.60;76.00
61386;DHT22;47256;18.904;-99.054;2023-03-01T13:10:15;20.60;75.30
61386;DHT22;47256;18.904;-99.054;2023-03-01T13:17:49;20.60;76.30
61386;DHT22;47256;18.904;-99.054;2023-03-01T13:20:30;20.60;76.10
61386;DHT22;47256;18.904;-99.054;2023-03-01T13:23:12;20.70;74.90
61386;DHT22;47256;18.904;-99.054;2023-03-01T13:31:04;21.00;74.30
61386;DHT22;47256;18.904;-99.054;2023-03-01T13:36:03;21.10;74.00
61386;DHT22;47256;18.904;-99.054;2023-03-01T13:52:42;21.20;76.00
61386;DHT22;47256;18.904;-99.054;2023-03-01T13:55:21;21.30;77.30
61386;DHT22;47256;18.904;-99.054;2023-03-01T13:57:55;21.30;76.80
61386;DHT22;47256;18.904;-99.054;2023-03-01T14:03:20;21.40;73.90
61386;DHT22;47256;18.904;-99.054;2023-03-01T14:06:06;21.40;74.00
61386;DHT22;47256;18.904;-99.054;2023-03-01T14:08:35;21.50;75.20
61386;DHT22;47256;18.904;-99.054;2023-03-01T14:17:18;21.80;72.50
61386;DHT22;47256;18.904;-99.054;2023-03-01T14:20:02;21.90;74.00
61386;DHT22;47256;18.904;-99.054;2023-03-01T14:22:34;22.00;74.50
61386;DHT22;47256;18.904;-99.054;2023-03-01T14:25:20;22.20;74.40
61386;DHT22;47256;18.904;-99.054;2023-03-01T14:28:24;22.30;74.80
61386;DHT22;47256;18.904;-99.054;2023-03-01T14:30:55;22.50;75.30
61386;DHT22;47256;18.904;-99.054;2023-03-01T14:35:58;22.70;74.60
61386;DHT22;47256;18.904;-99.054;2023-03-01T14:38:40;22.80;74.50
61386;DHT22;47256;18.904;-99.054;2023-03-01T14:43:42;22.90;72.00
61386;DHT22;47256;18.904;-99.054;2023-03-01T14:46:30;23.10;73.40
61386;DHT22;47256;18.904;-99.054;2023-03-01T14:49:13;23.30;73.00
61386;DHT22;47256;18.904;-99.054;2023-03-01T14:52:05;23.40;72.80
61386;DHT22;47256;18.904;-99.054;2023-03-01T14:54:40;23.50;73.30
61386;DHT22;47256;18.904;-99.054;2023-03-01T14:57:18;23.50;72.30
61386;DHT22;47256;18.904;-99.054;2023-03-01T14:59:52;23.60;73.70
61386;DHT22;47256;18.904;-99.054;2023-03-01T15:02:26;23.70;73.00
61386;DHT22;47256;18.904;-99.054;2023-03-01T15:04:57;23.80;73.00
61386;DHT22;47256;18.904;-99.054;2023-03-01T15:07:33;23.80;72.10
61386;DHT22;47256;18.904;-99.054;2023-03-01T15:10:03;23.90;72.10
61386;DHT22;47256;18.904;-99.054;2023-03-01T15:12:39;24.00;72.30
61386;DHT22;47256;18.904;-99.054;2023-03-01T15:15:22;24.10;71.70
61386;DHT22;47256;18.904;-99.054;2023-03-01T15:18:03;24.20;70.10
61386;DHT22;47256;18.904;-99.054;2023-03-01T15:20:31;24.20;71.50
61386;DHT22;47256;18.904;-99.054;2023-03-01T15:23:05;24.30;70.50
61386;DHT22;47256;18.904;-99.054;2023-03-01T15:25:45;24.40;70.90
61386;DHT22;47256;18.904;-99.054;2023-03-01T15:28:19;24.40;70.70
61386;DHT22;47256;18.904;-99.054;2023-03-01T15:30:54;24.60;71.60
61386;DHT22;47256;18.904;-99.054;2023-03-01T15:33:36;24.70;71.30
61386;DHT22;47256;18.904;-99.054;2023-03-01T15:38:58;24.80;70.20
61386;DHT22;47256;18.904;-99.054;2023-03-01T15:41:32;24.90;71.10
61386;DHT22;47256;18.904;-99.054;2023-03-01T15:44:14;24.90;70.40
61386;DHT22;47256;18.904;-99.054;2023-03-01T15:46:46;24.90;70.20
61386;DHT22;47256;18.904;-99.054;2023-03-01T15:49:40;25.00;69.90
61386;DHT22;47256;18.904;-99.054;2023-03-01T15:52:26;25.00;69.60
61386;DHT22;47256;18.904;-99.054;2023-03-01T15:55:01;25.10;69.00
61386;DHT22;47256;18.904;-99.054;2023-03-01T15:57:29;25.30;69.60
61386;DHT22;47256;18.904;-99.054;2023-03-01T15:59:57;25.50;70.10
61386;DHT22;47256;18.904;-99.054;2023-03-01T16:02:25;25.70;67.40
61386;DHT22;47256;18.904;-99.054;2023-03-01T16:04:52;25.90;67.10
61386;DHT22;47256;18.904;-99.054;2023-03-01T16:07:21;26.20;67.00
61386;DHT22;47256;18.904;-99.054;2023-03-01T16:09:48;26.50;66.80
61386;DHT22;47256;18.904;-99.054;2023-03-01T16:12:16;26.70;65.90
61386;DHT22;47256;18.904;-99.054;2023-03-01T16:14:44;26.90;65.90
61386;DHT22;47256;18.904;-99.054;2023-03-01T16:17:11;27.00;66.40
61386;DHT22;47256;18.904;-99.054;2023-03-01T16:19:38;27.20;65.10
61386;DHT22;47256;18.904;-99.054;2023-03-01T16:22:06;27.30;66.00
61386;DHT22;47256;18.904;-99.054;2023-03-01T16:24:33;27.40;65.80
61386;DHT22;47256;18.904;-99.054;2023-03-01T16:27:02;27.50;65.60
61386;DHT22;47256;18.904;-99.054;2023-03-01T16:29:30;27.70;63.90
61386;DHT22;47256;18.904;-99.054;2023-03-01T16:32:00;27.70;64.80
61386;DHT22;47256;18.904;-99.054;2023-03-01T16:34:34;28.00;64.80
61386;DHT22;47256;18.904;-99.054;2023-03-01T16:37:02;28.10;63.10
61386;DHT22;47256;18.904;-99.054;2023-03-01T16:39:29;28.30;63.00
61386;DHT22;47256;18.904;-99.054;2023-03-01T16:42:00;28.40;63.90
61386;DHT22;47256;18.904;-99.054;2023-03-01T16:44:28;28.50;63.60
61386;DHT22;47256;18.904;-99.054;2023-03-01T16:46:55;28.60;62.80
61386;DHT22;47256;18.904;-99.054;2023-03-01T16:49:23;28.60;62.00
61386;DHT22;47256;18.904;-99.054;2023-03-01T16:51:53;28.70;62.70
61386;DHT22;47256;18.904;-99.054;2023-03-01T16:54:22;28.90;62.20
61386;DHT22;47256;18.904;-99.054;2023-03-01T16:56:50;29.20;65.00
61386;DHT22;47256;18.904;-99.054;2023-03-01T16:59:18;29.40;65.20
61386;DHT22;47256;18.904;-99.054;2023-03-01T17:01:46;29.60;61.00
61386;DHT22;47256;18.904;-99.054;2023-03-01T17:04:14;29.70;63.10
61386;DHT22;47256;18.904;-99.054;2023-03-01T17:06:41;29.80;61.70
61386;DHT22;47256;18.904;-99.054;2023-03-01T17:09:08;30.00;63.30
61386;DHT22;47256;18.904;-99.054;2023-03-01T17:11:36;30.10;60.10
61386;DHT22;47256;18.904;-99.054;2023-03-01T17:14:07;30.10;61.60
61386;DHT22;47256;18.904;-99.054;2023-03-01T17:16:35;30.30;61.40
61386;DHT22;47256;18.904;-99.054;2023-03-01T17:19:02;30.30;60.30
61386;DHT22;47256;18.904;-99.054;2023-03-01T17:21:35;30.50;61.40
61386;DHT22;47256;18.904;-99.054;2023-03-01T17:24:08;30.60;62.70
61386;DHT22;47256;18.904;-99.054;2023-03-01T17:26:36;30.80;59.90
61386;DHT22;47256;18.904;-99.054;2023-03-01T17:29:03;30.80;59.80
61386;DHT22;47256;18.904;-99.054;2023-03-01T17:31:32;31.00;60.50
61386;DHT22;47256;18.904;-99.054;2023-03-01T17:34:00;31.00;59.40
61386;DHT22;47256;18.904;-99.054;2023-03-01T17:36:27;31.10;58.50
61386;DHT22;47256;18.904;-99.054;2023-03-01T17:38:55;31.10;58.90
61386;DHT22;47256;18.904;-99.054;2023-03-01T17:41:23;31.30;58.10
61386;DHT22;47256;18.904;-99.054;2023-03-01T17:43:51;31.30;59.40
61386;DHT22;47256;18.904;-99.054;2023-03-01T17:46:18;31.30;57.30
61386;DHT22;47256;18.904;-99.054;2023-03-01T17:48:46;31.40;59.70
61386;DHT22;47256;18.904;-99.054;2023-03-01T17:51:15;31.50;58.90
61386;DHT22;47256;18.904;-99.054;2023-03-01T17:53:42;31.50;60.50
61386;DHT22;47256;18.904;-99.054;2023-03-01T17:56:10;31.60;58.60
61386;DHT22;47256;18.904;-99.054;2023-03-01T17:58:38;31.60;59.50